»·PEaware :: N982YR KBLI-KBFI

N982YR :: KBLI-KBFI

FLIGHT INFORMATION

Flight Status: Arrived
Operator: Privately registered:
United States
More flights under this callsign
Pilot: Anonymous 15639 (15639)
Aircraft: CESSNA 172 SKYHAWK
(C172)
More flights by this aircraft type
Origin: KBLI Bellingham Intl
United States
Destination: KBFI Boeing Field/King Co Intl
United States
More flights between these airports :: More routes between these airports
Route: +KIENO5 CVV V287 PAE
File this flight plan on PilotEdge
Remarks:
Altitude:
(Current/Filed)
5,000ft
Speed:
(Current/Filed)
115kts
Departed: 22-Aug-18 10:48 AM
Arrived: 22-Aug-18 11:34 AM
Distance/Time
Traveled:
77nm/0:46
Distance/Time
To Go:
Arrived

Flight Plot

Page will automatically refresh every two minutes.

Flight plan parsing failed; only flown route is shown


Map Options




Map Legend


Flown Route
Filed Route
Departure Airport
Arrival Airport
Navaid (VOR, NDB)
Fix

Horizontal Profiles

Position Reports

Time Latitude Longitude Heading Altitude Ground
Speed
22-Aug-18 10:24 48.793554 -122.532471 316 173ft 0kts
22-Aug-18 10:25 48.793554 -122.532471 316 173ft 0kts
22-Aug-18 10:26 48.793554 -122.532471 316 173ft 0kts
22-Aug-18 10:27 48.793554 -122.532471 316 173ft 0kts
22-Aug-18 10:28 48.793554 -122.532471 316 173ft 0kts
22-Aug-18 10:29 48.793554 -122.532471 316 173ft 0kts
22-Aug-18 10:30 48.793554 -122.532471 316 173ft 0kts
22-Aug-18 10:31 48.793554 -122.532471 316 173ft 0kts
22-Aug-18 10:32 48.793554 -122.532471 316 173ft 0kts
22-Aug-18 10:33 48.793554 -122.532471 316 173ft 0kts
22-Aug-18 10:34 48.793554 -122.532471 316 173ft 0kts
22-Aug-18 10:35 48.793554 -122.532471 316 173ft 0kts
22-Aug-18 10:36 48.793554 -122.532471 316 173ft 0kts
22-Aug-18 10:37 48.793554 -122.532471 316 173ft 0kts
22-Aug-18 10:38 48.793613 -122.532557 314 173ft 0kts
22-Aug-18 10:39 48.793414 -122.533993 230 173ft 6kts
22-Aug-18 10:40 48.795242 -122.535905 359 173ft 10kts
22-Aug-18 10:41 48.798133 -122.535953 356 173ft 9kts
22-Aug-18 10:42 48.799799 -122.535970 359 173ft 10kts
22-Aug-18 10:43 48.801222 -122.536447 359 173ft 0kts
22-Aug-18 10:44 48.801223 -122.536447 358 173ft 0kts
22-Aug-18 10:45 48.801222 -122.536447 359 173ft 0kts
22-Aug-18 10:46 48.801222 -122.536447 359 173ft 0kts
22-Aug-18 10:47 48.801222 -122.536447 359 173ft 0kts
22-Aug-18 10:48 48.801513 -122.537610 175 173ft 5kts
22-Aug-18 10:49 48.786780 -122.537641 189 746ft 70kts
22-Aug-18 10:50 48.771585 -122.555147 198 1641ft 72kts
22-Aug-18 10:51 48.754445 -122.571932 200 2469ft 75kts
22-Aug-18 10:52 48.733985 -122.578456 179 3255ft 75kts
22-Aug-18 10:53 48.712438 -122.578902 178 3946ft 82kts
22-Aug-18 10:54 48.689409 -122.578967 178 4613ft 83kts
22-Aug-18 10:55 48.664680 -122.578992 180 5003ft 106kts
22-Aug-18 10:56 48.634009 -122.589016 192 5002ft 114kts
22-Aug-18 10:57 48.603077 -122.599866 193 5009ft 114kts
22-Aug-18 10:58 48.572183 -122.610671 194 5017ft 114kts
22-Aug-18 10:59 48.541262 -122.621471 194 5025ft 114kts
22-Aug-18 11:00 48.510007 -122.632264 195 5035ft 115kts
22-Aug-18 11:01 48.478536 -122.643333 195 5045ft 117kts
22-Aug-18 11:02 48.446655 -122.654435 195 5044ft 118kts
22-Aug-18 11:03 48.414550 -122.665593 195 5036ft 119kts
22-Aug-18 11:04 48.382251 -122.676799 195 5035ft 118kts
22-Aug-18 11:05 48.350190 -122.687910 195 5035ft 118kts
22-Aug-18 11:06 48.318223 -122.698970 195 5036ft 117kts
22-Aug-18 11:07 48.286672 -122.709853 195 5036ft 116kts
22-Aug-18 11:08 48.255135 -122.720732 195 5036ft 116kts
22-Aug-18 11:09 48.227019 -122.698438 140 5036ft 122kts
22-Aug-18 11:10 48.201809 -122.664528 139 5036ft 122kts
22-Aug-18 11:11 48.176758 -122.630150 139 5036ft 122kts
22-Aug-18 11:12 48.151731 -122.595658 139 5032ft 122kts
22-Aug-18 11:13 48.126767 -122.561251 138 5029ft 122kts
22-Aug-18 11:14 48.101792 -122.526863 138 5027ft 122kts
22-Aug-18 11:15 48.076875 -122.492600 138 5026ft 122kts
22-Aug-18 11:16 48.051887 -122.458284 137 5025ft 122kts
22-Aug-18 11:17 48.026948 -122.424081 136 5026ft 121kts
22-Aug-18 11:18 48.001897 -122.390346 148 5023ft 121kts
22-Aug-18 11:19 47.973220 -122.407771 215 4432ft 118kts
22-Aug-18 11:20 47.945772 -122.435404 196 3830ft 121kts
22-Aug-18 11:21 47.912227 -122.440545 185 3232ft 121kts
22-Aug-18 11:22 47.879435 -122.445234 185 3025ft 118kts
22-Aug-18 11:23 47.846396 -122.450012 185 2727ft 120kts
22-Aug-18 11:24 47.813134 -122.454886 185 2243ft 119kts
22-Aug-18 11:25 47.780261 -122.459700 185 2215ft 118kts
22-Aug-18 11:26 47.747543 -122.464483 185 2211ft 118kts
22-Aug-18 11:27 47.715843 -122.459569 150 2207ft 118kts
22-Aug-18 11:28 47.687154 -122.435588 149 2203ft 118kts
22-Aug-18 11:29 47.658739 -122.411124 149 2211ft 117kts
22-Aug-18 11:30 47.631536 -122.388375 150 2098ft 103kts
22-Aug-18 11:31 47.606962 -122.367599 149 1582ft 99kts
22-Aug-18 11:32 47.583400 -122.347695 150 1069ft 99kts
22-Aug-18 11:33 47.561742 -122.329469 149 549ft 82kts
22-Aug-18 11:34 47.542685 -122.313266 149 106ft 78kts
22-Aug-18 11:35 47.533803 -122.306178 237 22ft 1kts
22-Aug-18 11:36 47.533554 -122.306821 239 22ft 0kts
22-Aug-18 11:37 47.530543 -122.304487 151 22ft 15kts
22-Aug-18 11:38 47.527553 -122.301939 150 22ft 11kts
22-Aug-18 11:39 47.526132 -122.301581 156 22ft 2kts
22-Aug-18 11:40 47.526107 -122.301564 153 22ft 0kts

Navigation Log

Ident Type
Flight plan parsing failed, navigation log unavailable